Time;durP1;ratioP1;P1;durP2;ratioP2;P2;SDS_P1;SDS_P2;PMS_P1;PMS_P2;Temp;Humidity;BMP_temperature;BMP_pressure;BME280_temperature;BME280_humidity;BME280_pressure;Samples;Min_cycle;Max_cycle;Signal;HPM_P1;HPM_P2
2021/05/27 00:01:06;;;;;;;14.20;10.20;;;11.60;99.90;;;;;;4992692;28;20468;-70
2021/05/27 00:03:32;;;;;;;11.30;9.90;;;11.60;99.90;;;;;;4982722;28;20464;-70
2021/05/27 00:06:01;;;;;;;11.90;9.90;;;11.60;99.90;;;;;;4960254;28;20487;-70
2021/05/27 00:08:32;;;;;;;15.23;10.83;;;11.60;99.90;;;;;;4976602;28;20809;-70
2021/05/27 00:11:11;;;;;;;12.70;9.63;;;11.70;99.90;;;;;;4993231;28;20858;-70
2021/05/27 00:13:37;;;;;;;11.03;9.87;;;11.60;99.90;;;;;;4987765;28;20524;-70
2021/05/27 00:16:04;;;;;;;13.40;11.00;;;11.70;99.90;;;;;;4978471;28;20465;-70
2021/05/27 00:18:51;;;;;;;13.50;10.00;;;11.60;99.90;;;;;;4978542;28;20437;-70
2021/05/27 00:21:18;;;;;;;13.10;10.90;;;11.60;99.90;;;;;;4993124;28;20449;-70
2021/05/27 00:23:50;;;;;;;14.20;10.87;;;11.60;99.90;;;;;;4993254;28;20421;-70
2021/05/27 00:26:16;;;;;;;13.40;12.00;;;11.60;99.90;;;;;;4976208;28;20417;-70
2021/05/27 00:28:46;;;;;;;14.40;10.80;;;11.70;99.90;;;;;;4992253;28;20507;-70
2021/05/27 00:31:15;;;;;;;13.50;10.97;;;11.70;99.90;;;;;;4976034;28;20508;-70
2021/05/27 00:33:41;;;;;;;14.53;11.97;;;11.70;99.90;;;;;;4991133;28;20489;-68
2021/05/27 00:36:07;;;;;;;13.57;11.33;;;11.60;99.90;;;;;;4977277;28;20453;-68
2021/05/27 00:38:33;;;;;;;17.50;12.60;;;11.60;99.90;;;;;;4992168;28;20814;-70
2021/05/27 00:40:59;;;;;;;15.60;11.63;;;11.70;99.90;;;;;;4976222;28;20446;-70
2021/05/27 00:43:25;;;;;;;16.80;12.40;;;11.70;99.90;;;;;;4993165;28;20486;-70
2021/05/27 00:45:59;;;;;;;13.40;10.97;;;11.60;99.90;;;;;;4991254;28;20476;-70
2021/05/27 00:51:12;;;;;;;12.20;10.10;;;11.70;99.90;;;;;;4974000;28;20454;-70
2021/05/27 00:53:38;;;;;;;13.43;10.33;;;11.70;99.90;;;;;;4991783;28;20520;-70
2021/05/27 00:56:05;;;;;;;11.53;9.87;;;11.70;99.90;;;;;;4990929;28;20434;-70
2021/05/27 00:58:32;;;;;;;11.80;8.97;;;11.70;99.90;;;;;;4993281;28;20414;-70
2021/05/27 01:01:00;;;;;;;10.70;9.33;;;11.70;99.90;;;;;;4980402;28;20485;-70
2021/05/27 01:03:26;;;;;;;9.23;8.33;;;11.70;99.90;;;;;;4972720;28;20853;-70
2021/05/27 01:05:52;;;;;;;11.23;7.40;;;11.80;99.90;;;;;;4987702;28;20437;-69
2021/05/27 01:08:18;;;;;;;8.73;7.90;;;11.70;99.90;;;;;;4959653;28;20929;-70
2021/05/27 01:10:49;;;;;;;15.10;8.50;;;11.70;99.90;;;;;;4951447;28;20547;-70
2021/05/27 01:13:22;;;;;;;8.00;6.50;;;11.70;99.90;;;;;;4992732;28;20464;-70
2021/05/27 01:15:52;;;;;;;11.03;6.93;;;11.60;99.90;;;;;;4992175;28;20476;-70
2021/05/27 01:18:22;;;;;;;8.47;7.20;;;11.70;99.90;;;;;;4975206;28;20425;-70
2021/05/27 01:20:51;;;;;;;11.10;7.97;;;11.70;99.90;;;;;;4991151;28;20954;-70
2021/05/27 01:23:20;;;;;;;10.90;7.57;;;11.70;99.90;;;;;;4983995;28;20954;-70
2021/05/27 01:25:52;;;;;;;11.40;7.50;;;11.60;99.90;;;;;;4992929;28;21097;-70
2021/05/27 01:28:21;;;;;;;9.10;7.50;;;11.60;99.90;;;;;;4992475;28;20418;-69
2021/05/27 01:30:48;;;;;;;10.47;7.37;;;11.60;99.90;;;;;;4975236;28;20499;-70
2021/05/27 01:33:25;;;;;;;9.83;7.07;;;11.70;99.90;;;;;;4975004;28;20460;-70
2021/05/27 01:35:55;;;;;;;8.47;6.90;;;11.80;99.90;;;;;;4975589;28;20970;-71
2021/05/27 01:38:26;;;;;;;6.50;5.80;;;11.70;99.90;;;;;;4991246;28;20433;-70
2021/05/27 01:40:53;;;;;;;9.60;7.20;;;11.70;99.90;;;;;;4993352;28;20950;-70
2021/05/27 01:43:25;;;;;;;10.23;7.07;;;11.80;99.90;;;;;;4979048;28;20483;-70
2021/05/27 01:45:54;;;;;;;11.33;6.60;;;11.80;99.90;;;;;;4979354;28;20794;-69
2021/05/27 01:48:21;;;;;;;11.23;7.17;;;11.80;99.90;;;;;;4978462;28;20535;-70
2021/05/27 01:50:49;;;;;;;8.00;7.20;;;11.80;99.90;;;;;;4962912;28;20842;-71
2021/05/27 01:53:19;;;;;;;8.03;6.90;;;11.80;99.90;;;;;;4963130;28;20489;-70
2021/05/27 01:55:51;;;;;;;10.33;7.10;;;11.80;99.90;;;;;;4962788;28;20431;-70
2021/05/27 01:58:19;;;;;;;14.13;8.90;;;11.80;99.90;;;;;;4996375;28;20916;-70
2021/05/27 02:00:47;;;;;;;12.20;8.13;;;11.80;99.90;;;;;;4978809;28;20968;-70
2021/05/27 02:03:18;;;;;;;11.10;9.37;;;11.70;99.90;;;;;;4978967;28;20799;-70
2021/05/27 02:05:51;;;;;;;11.00;9.00;;;11.60;99.90;;;;;;4995551;28;20517;-70
2021/05/27 02:08:20;;;;;;;11.03;9.47;;;11.60;99.90;;;;;;4990309;28;20851;-70
2021/05/27 02:10:49;;;;;;;15.17;9.57;;;11.70;99.90;;;;;;4962310;28;20452;-70
2021/05/27 02:13:18;;;;;;;12.13;10.33;;;11.60;99.90;;;;;;4979073;28;21001;-70
2021/05/27 02:15:44;;;;;;;17.83;10.60;;;11.60;99.90;;;;;;4962097;28;20491;-70
2021/05/27 02:18:11;;;;;;;13.40;10.67;;;11.60;99.90;;;;;;4995461;28;20452;-70
2021/05/27 02:20:39;;;;;;;12.57;10.70;;;11.60;99.90;;;;;;4981829;28;20528;-70
2021/05/27 02:23:06;;;;;;;11.60;10.03;;;11.70;99.90;;;;;;4987069;28;21218;-71
2021/05/27 02:25:44;;;;;;;12.73;10.63;;;11.70;99.90;;;;;;4963905;28;20429;-70
2021/05/27 02:28:21;;;;;;;12.70;10.80;;;11.70;99.90;;;;;;4995683;28;20431;-70
2021/05/27 02:30:51;;;;;;;17.53;11.40;;;11.70;99.90;;;;;;4995207;28;20519;-70
2021/05/27 02:33:18;;;;;;;13.77;10.90;;;11.70;99.90;;;;;;4993262;28;20461;-70
2021/05/27 02:35:47;;;;;;;15.60;10.93;;;11.70;99.90;;;;;;4994303;28;20786;-70
2021/05/27 02:38:14;;;;;;;14.07;10.70;;;11.70;99.90;;;;;;4993431;28;20422;-70
2021/05/27 02:40:44;;;;;;;14.23;11.50;;;11.70;99.90;;;;;;4978377;28;20959;-70
2021/05/27 02:43:10;;;;;;;17.27;10.53;;;11.60;99.90;;;;;;4982380;28;20427;-70
2021/05/27 02:45:39;;;;;;;15.23;11.80;;;11.50;99.90;;;;;;4978332;28;20427;-70
2021/05/27 02:48:09;;;;;;;14.50;11.40;;;11.30;99.90;;;;;;4978015;28;20433;-70
2021/05/27 02:50:41;;;;;;;14.00;10.80;;;11.30;99.90;;;;;;4961746;28;20467;-70
2021/05/27 02:53:10;;;;;;;12.17;10.80;;;11.20;99.90;;;;;;4977437;28;20460;-70
2021/05/27 02:55:38;;;;;;;14.80;10.80;;;11.20;99.90;;;;;;4968198;28;20420;-70
2021/05/27 02:58:04;;;;;;;17.83;10.73;;;11.20;99.90;;;;;;4994217;28;20895;-70
2021/05/27 03:00:32;;;;;;;15.60;9.70;;;11.20;99.90;;;;;;4987772;28;20453;-70
2021/05/27 03:03:16;;;;;;;16.70;9.73;;;11.20;99.90;;;;;;4970790;28;20468;-70
2021/05/27 03:05:43;;;;;;;11.87;10.13;;;11.20;99.90;;;;;;4978029;28;20429;-70
2021/05/27 03:08:09;;;;;;;13.00;10.10;;;11.20;99.90;;;;;;4961640;28;20806;-70
2021/05/27 03:10:38;;;;;;;12.57;10.77;;;11.20;99.90;;;;;;4989846;28;20445;-70
2021/05/27 03:13:07;;;;;;;13.23;9.83;;;11.10;99.90;;;;;;4976997;28;21036;-70
2021/05/27 03:15:37;;;;;;;11.73;10.27;;;11.10;99.90;;;;;;4977003;28;21097;-70
2021/05/27 03:18:07;;;;;;;15.37;10.37;;;11.20;99.90;;;;;;4959495;28;20431;-70
2021/05/27 03:20:35;;;;;;;13.23;11.00;;;11.20;99.90;;;;;;4957897;28;20477;-70
2021/05/27 03:23:03;;;;;;;16.90;10.20;;;11.20;99.90;;;;;;4965017;28;20449;-70
2021/05/27 03:25:30;;;;;;;14.33;9.80;;;11.30;99.90;;;;;;5010878;23;20496;-73
2021/05/27 03:27:56;;;;;;;13.47;10.03;;;11.30;99.90;;;;;;4993873;28;20508;-73
2021/05/27 03:30:23;;;;;;;14.93;10.20;;;11.30;99.90;;;;;;5007834;28;20448;-74
2021/05/27 03:32:52;;;;;;;15.80;11.77;;;11.40;99.90;;;;;;5007971;28;20473;-73
2021/05/27 03:35:18;;;;;;;14.60;11.20;;;11.30;99.90;;;;;;5021817;28;20434;-73
2021/05/27 03:37:49;;;;;;;18.60;10.43;;;11.30;99.90;;;;;;5016464;28;20422;-73
2021/05/27 03:40:24;;;;;;;20.93;12.03;;;11.20;99.90;;;;;;4986551;28;20519;-73
2021/05/27 03:42:59;;;;;;;17.13;12.27;;;11.20;99.90;;;;;;4964760;28;20468;-73
2021/05/27 03:45:34;;;;;;;23.37;12.53;;;11.20;99.90;;;;;;4992436;28;20430;-73
2021/05/27 03:48:10;;;;;;;20.70;12.03;;;11.10;99.90;;;;;;5001088;28;20461;-73
2021/05/27 03:50:39;;;;;;;17.57;12.43;;;11.10;99.90;;;;;;5000347;28;20856;-74
2021/05/27 03:53:16;;;;;;;17.47;11.87;;;11.20;99.90;;;;;;4992459;28;20449;-73
2021/05/27 03:55:49;;;;;;;17.73;10.90;;;11.20;99.90;;;;;;4986817;28;20428;-73
2021/05/27 04:01:01;;;;;;;15.87;11.23;;;11.20;99.90;;;;;;5003482;28;20471;-73
2021/05/27 04:09:14;;;;;;;21.30;12.30;;;11.10;99.90;;;;;;4998709;28;20424;-73
2021/05/27 04:11:40;;;;;;;22.03;11.93;;;11.10;99.90;;;;;;4979829;28;20518;-73
2021/05/27 04:14:08;;;;;;;18.20;12.40;;;11.20;99.90;;;;;;5010469;28;20453;-73
2021/05/27 04:16:35;;;;;;;16.67;11.23;;;11.20;99.90;;;;;;5012025;28;20793;-74
2021/05/27 04:19:01;;;;;;;18.70;11.80;;;11.10;99.90;;;;;;5013345;28;20789;-74
2021/05/27 04:21:27;;;;;;;22.57;12.20;;;11.10;99.90;;;;;;4994908;28;20452;-74
2021/05/27 04:23:56;;;;;;;21.80;12.40;;;11.10;99.90;;;;;;4995390;28;20416;-74
2021/05/27 04:26:23;;;;;;;19.23;12.10;;;11.10;99.90;;;;;;5010192;28;20468;-72
2021/05/27 04:28:49;;;;;;;18.27;11.63;;;11.10;99.90;;;;;;4999130;28;20436;-74
2021/05/27 04:31:18;;;;;;;18.60;12.03;;;11.10;99.90;;;;;;5013542;28;20952;-75
2021/05/27 04:33:48;;;;;;;20.50;12.90;;;11.10;99.90;;;;;;4995283;28;20452;-73
2021/05/27 04:36:18;;;;;;;20.80;13.00;;;11.20;99.90;;;;;;4979400;28;20482;-77
2021/05/27 04:38:48;;;;;;;18.70;13.20;;;11.10;99.90;;;;;;5013256;28;20428;-74
2021/05/27 04:41:14;;;;;;;24.03;13.73;;;11.20;99.90;;;;;;4994733;28;20503;-74
2021/05/27 04:43:46;;;;;;;23.50;15.27;;;11.10;99.90;;;;;;4995839;28;20506;-74
2021/05/27 04:46:16;;;;;;;21.80;15.10;;;11.00;99.90;;;;;;4995401;28;20432;-74
2021/05/27 04:48:42;;;;;;;26.37;16.10;;;11.00;99.90;;;;;;5023880;28;20843;-73
2021/05/27 04:51:11;;;;;;;24.80;16.40;;;10.90;99.90;;;;;;4990012;28;20471;-74
2021/05/27 04:53:37;;;;;;;28.13;17.13;;;10.90;99.90;;;;;;5032603;28;20467;-73
2021/05/27 04:56:04;;;;;;;28.43;18.60;;;10.90;99.90;;;;;;4991377;28;20528;-74
2021/05/27 04:58:30;;;;;;;30.47;19.03;;;10.90;99.90;;;;;;5014904;28;20416;-74
2021/05/27 05:00:58;;;;;;;25.70;18.90;;;10.90;99.90;;;;;;5023694;28;20829;-74
2021/05/27 05:03:27;;;;;;;31.03;19.80;;;10.80;99.90;;;;;;5032504;28;20455;-74
2021/05/27 05:05:54;;;;;;;31.03;18.90;;;10.90;99.90;;;;;;5017816;28;21103;-74
2021/05/27 05:08:20;;;;;;;32.20;19.20;;;10.90;99.90;;;;;;4995438;28;20838;-74
2021/05/27 05:10:48;;;;;;;35.60;21.60;;;11.00;99.90;;;;;;5008533;28;20998;-73
2021/05/27 05:13:17;;;;;;;29.83;19.40;;;10.90;99.90;;;;;;4987303;28;20874;-74
2021/05/27 05:15:45;;;;;;;33.10;20.17;;;10.90;99.90;;;;;;4999363;28;20435;-74
2021/05/27 05:18:13;;;;;;;33.60;20.53;;;10.80;99.90;;;;;;5019309;28;20431;-74
2021/05/27 05:20:41;;;;;;;31.77;20.47;;;10.90;99.90;;;;;;5019315;28;20497;-73
2021/05/27 05:23:08;;;;;;;33.63;19.17;;;10.90;99.90;;;;;;5001591;28;20444;-74
2021/05/27 05:25:40;;;;;;;30.67;20.13;;;10.90;99.90;;;;;;5000954;28;20471;-74
2021/05/27 05:28:11;;;;;;;33.10;20.80;;;10.90;99.90;;;;;;4994273;28;20492;-74
2021/05/27 05:30:41;;;;;;;34.30;21.00;;;11.00;99.90;;;;;;4989056;28;20456;-73
2021/05/27 05:33:07;;;;;;;32.97;19.07;;;10.90;99.90;;;;;;5001721;28;20471;-74
2021/05/27 05:35:36;;;;;;;32.90;19.33;;;10.90;99.90;;;;;;4992790;28;20477;-73
2021/05/27 05:38:03;;;;;;;31.47;18.30;;;10.90;99.90;;;;;;5002505;28;20523;-73
2021/05/27 05:40:30;;;;;;;28.30;18.83;;;10.90;99.90;;;;;;4999868;28;20459;-73
2021/05/27 05:42:56;;;;;;;31.27;20.17;;;10.80;99.90;;;;;;5001150;28;20446;-73
2021/05/27 05:45:27;;;;;;;28.23;18.23;;;10.80;99.90;;;;;;4985231;28;20847;-74
2021/05/27 05:47:56;;;;;;;29.17;18.60;;;10.80;99.90;;;;;;5019061;28;20426;-73
2021/05/27 05:53:19;;;;;;;32.40;19.83;;;10.80;99.90;;;;;;5019667;28;20571;-75
2021/05/27 05:55:49;;;;;;;27.87;18.23;;;10.70;99.90;;;;;;4985002;28;20430;-74
2021/05/27 05:58:20;;;;;;;30.90;18.70;;;10.80;99.90;;;;;;5019145;28;20455;-75
2021/05/27 06:00:52;;;;;;;28.60;18.47;;;10.80;99.90;;;;;;5018968;28;21039;-75
2021/05/27 06:03:20;;;;;;;33.50;19.57;;;10.70;99.90;;;;;;5001345;28;20423;-75
2021/05/27 06:06:04;;;;;;;27.83;18.60;;;10.80;99.90;;;;;;5003558;28;20828;-75
2021/05/27 06:08:50;;;;;;;30.63;17.30;;;10.70;99.90;;;;;;4995817;28;20473;-74
2021/05/27 06:11:18;;;;;;;39.87;18.40;;;10.70;99.90;;;;;;5003667;28;20820;-73
2021/05/27 06:13:44;;;;;;;34.77;18.60;;;10.70;99.90;;;;;;5004715;28;21050;-75
2021/05/27 06:16:10;;;;;;;32.60;17.17;;;10.70;99.90;;;;;;4990958;28;20562;-75
2021/05/27 06:18:39;;;;;;;30.07;17.53;;;10.70;99.90;;;;;;4983748;28;20427;-75
2021/05/27 06:21:27;;;;;;;33.83;17.77;;;10.70;99.90;;;;;;4987540;28;20477;-75
2021/05/27 06:23:55;;;;;;;24.67;15.50;;;10.70;99.90;;;;;;5009853;28;20800;-74
2021/05/27 06:26:21;;;;;;;22.93;14.10;;;10.70;99.90;;;;;;5015137;28;20482;-74
2021/05/27 06:28:51;;;;;;;25.60;13.43;;;10.70;99.90;;;;;;4984010;28;20444;-73
2021/05/27 06:31:21;;;;;;;24.13;15.10;;;10.70;99.90;;;;;;4997718;28;20460;-76
2021/05/27 06:33:49;;;;;;;21.60;13.70;;;10.60;99.90;;;;;;4980396;28;20469;-75
2021/05/27 06:36:15;;;;;;;24.33;14.17;;;10.60;99.90;;;;;;4978097;28;20427;-75
2021/05/27 06:38:41;;;;;;;26.10;14.43;;;10.60;99.90;;;;;;5003926;28;20578;-74
2021/05/27 06:41:08;;;;;;;21.03;13.80;;;10.50;99.90;;;;;;4980924;28;20826;-74
2021/05/27 06:43:34;;;;;;;20.97;12.37;;;10.60;99.90;;;;;;4978786;28;20936;-74
2021/05/27 06:46:01;;;;;;;25.73;13.83;;;10.60;99.90;;;;;;5013707;28;20487;-74
2021/05/27 06:48:27;;;;;;;24.80;12.97;;;10.60;99.90;;;;;;4981237;28;20806;-74
2021/05/27 06:50:53;;;;;;;24.37;12.50;;;10.60;99.90;;;;;;4983313;28;20858;-74
2021/05/27 06:53:21;;;;;;;23.47;13.00;;;10.50;99.90;;;;;;5000481;28;20466;-74
2021/05/27 06:55:50;;;;;;;24.90;12.77;;;10.60;99.90;;;;;;4993748;28;20518;-74
2021/05/27 06:58:21;;;;;;;18.97;11.70;;;10.50;99.90;;;;;;5005210;28;20454;-74
2021/05/27 07:00:47;;;;;;;17.73;11.03;;;10.50;99.90;;;;;;4996562;28;20829;-74
2021/05/27 07:03:17;;;;;;;19.03;11.53;;;10.60;99.90;;;;;;5014207;28;20439;-74
2021/05/27 07:05:48;;;;;;;18.20;10.87;;;10.60;99.90;;;;;;5005915;28;20463;-74
2021/05/27 07:08:14;;;;;;;18.00;10.90;;;10.60;99.90;;;;;;5030485;28;20435;-73
2021/05/27 07:10:42;;;;;;;23.43;11.00;;;10.60;99.90;;;;;;5031053;28;20985;-73
2021/05/27 07:13:12;;;;;;;19.17;10.67;;;10.60;99.90;;;;;;4996574;28;21038;-74
2021/05/27 07:15:40;;;;;;;18.33;10.57;;;10.70;99.90;;;;;;4995893;28;20523;-73
2021/05/27 07:18:09;;;;;;;18.73;10.60;;;10.70;99.90;;;;;;5013385;28;20445;-74
2021/05/27 07:20:42;;;;;;;17.20;10.50;;;10.70;99.90;;;;;;5002145;28;20455;-75
2021/05/27 07:23:09;;;;;;;23.80;10.83;;;10.70;99.90;;;;;;4973989;28;20436;-74
2021/05/27 07:25:36;;;;;;;21.83;11.30;;;10.70;99.90;;;;;;4999179;28;20488;-76
2021/05/27 07:28:03;;;;;;;20.07;11.10;;;10.70;99.90;;;;;;5009685;28;20446;-75
2021/05/27 07:30:32;;;;;;;23.17;10.90;;;10.80;99.90;;;;;;5017166;28;20439;-75
2021/05/27 07:33:04;;;;;;;21.80;11.50;;;10.70;99.90;;;;;;4998069;28;20472;-76
2021/05/27 07:35:33;;;;;;;21.13;10.60;;;10.80;99.90;;;;;;5014528;28;20413;-76
2021/05/27 07:38:08;;;;;;;16.50;10.57;;;10.80;99.90;;;;;;5013556;28;20428;-75
2021/05/27 07:40:34;;;;;;;15.90;9.70;;;10.80;99.90;;;;;;5027575;28;20500;-75
2021/05/27 07:43:03;;;;;;;20.30;11.10;;;10.80;99.90;;;;;;4981741;28;20438;-75
2021/05/27 07:45:29;;;;;;;20.33;11.90;;;10.80;99.90;;;;;;4996762;28;20452;-74
2021/05/27 07:47:56;;;;;;;19.03;10.30;;;10.80;99.90;;;;;;5014028;28;20424;-74
2021/05/27 07:50:27;;;;;;;19.17;11.20;;;10.70;99.90;;;;;;4979756;28;20559;-74
2021/05/27 07:52:56;;;;;;;18.43;10.27;;;10.80;99.90;;;;;;4995949;28;20468;-77
2021/05/27 07:55:26;;;;;;;17.43;10.90;;;10.80;99.90;;;;;;4996749;28;20416;-75
2021/05/27 07:57:55;;;;;;;26.43;10.60;;;10.80;99.90;;;;;;4996324;28;20416;-73
2021/05/27 08:00:22;;;;;;;20.43;11.83;;;10.70;99.90;;;;;;4980285;28;20444;-73
2021/05/27 08:02:48;;;;;;;17.70;11.50;;;10.70;99.90;;;;;;5023477;28;20599;-73
2021/05/27 08:05:15;;;;;;;15.93;10.53;;;10.60;99.90;;;;;;5014702;28;20466;-75
2021/05/27 08:07:47;;;;;;;19.37;11.50;;;10.70;99.90;;;;;;5014541;28;20430;-75
2021/05/27 08:10:16;;;;;;;19.63;11.30;;;10.70;99.90;;;;;;5003003;28;20458;-75
2021/05/27 08:12:47;;;;;;;18.37;10.77;;;10.70;99.90;;;;;;4995607;28;20528;-75
2021/05/27 08:15:19;;;;;;;19.23;10.70;;;10.70;99.90;;;;;;5012843;28;20944;-75
2021/05/27 08:17:48;;;;;;;13.70;9.43;;;10.70;99.90;;;;;;5013157;28;20507;-75
2021/05/27 08:20:14;;;;;;;21.23;11.07;;;10.70;99.90;;;;;;4997727;28;20464;-75
2021/05/27 08:22:42;;;;;;;20.80;11.33;;;10.70;99.90;;;;;;5017551;28;20447;-75
2021/05/27 08:25:12;;;;;;;26.63;11.67;;;10.70;99.90;;;;;;4980885;28;20838;-75
2021/05/27 08:27:40;;;;;;;14.90;10.53;;;10.70;99.90;;;;;;4998886;28;20434;-75
2021/05/27 08:30:07;;;;;;;18.27;11.03;;;10.80;99.90;;;;;;4993328;28;20884;-75
2021/05/27 08:32:37;;;;;;;19.10;11.67;;;10.80;99.90;;;;;;4995124;28;20514;-75
2021/05/27 08:35:04;;;;;;;19.67;10.83;;;10.80;99.90;;;;;;5008043;28;20828;-75
2021/05/27 08:37:30;;;;;;;13.77;10.20;;;10.80;99.90;;;;;;5014789;28;20758;-75
2021/05/27 08:39:59;;;;;;;24.80;10.57;;;10.80;99.90;;;;;;4981722;28;20459;-75
2021/05/27 08:42:29;;;;;;;16.93;10.77;;;10.70;99.90;;;;;;5010623;28;20633;-75
2021/05/27 08:44:59;;;;;;;16.27;10.27;;;10.80;99.90;;;;;;4982736;28;20500;-75
2021/05/27 08:47:30;;;;;;;18.67;11.30;;;10.90;99.90;;;;;;4998977;28;20462;-75
2021/05/27 08:49:58;;;;;;;26.50;11.37;;;10.90;99.90;;;;;;4976589;28;20456;-75
2021/05/27 08:52:24;;;;;;;25.60;11.47;;;10.90;99.90;;;;;;5019614;28;20431;-75
2021/05/27 08:54:50;;;;;;;16.10;10.57;;;10.80;99.90;;;;;;5013892;28;20847;-75
2021/05/27 08:57:18;;;;;;;17.30;11.00;;;10.80;99.90;;;;;;5014670;28;20599;-75
2021/05/27 08:59:47;;;;;;;19.43;11.83;;;10.80;99.90;;;;;;5020386;28;20787;-75
2021/05/27 09:02:16;;;;;;;18.17;12.27;;;10.80;99.90;;;;;;5014542;28;20506;-75
2021/05/27 09:04:42;;;;;;;14.00;11.03;;;10.90;99.90;;;;;;5011523;28;20963;-75
2021/05/27 09:07:12;;;;;;;20.37;11.00;;;10.90;99.90;;;;;;5029560;28;20419;-75
2021/05/27 09:09:55;;;;;;;18.73;11.60;;;10.90;99.90;;;;;;5014464;28;20432;-75
2021/05/27 09:12:32;;;;;;;22.93;12.90;;;10.90;99.90;;;;;;4994644;28;20814;-75
2021/05/27 09:15:03;;;;;;;13.90;11.13;;;10.80;99.90;;;;;;5012142;28;20843;-75
2021/05/27 09:17:51;;;;;;;21.13;10.47;;;10.80;99.90;;;;;;4994189;28;20441;-75
2021/05/27 09:20:28;;;;;;;17.30;11.20;;;10.80;99.90;;;;;;4992921;28;20905;-75
2021/05/27 09:23:17;;;;;;;20.60;13.03;;;10.80;99.90;;;;;;5011038;28;20556;-75
2021/05/27 09:25:48;;;;;;;17.87;11.70;;;10.80;99.90;;;;;;5022411;28;20825;-76
2021/05/27 09:28:23;;;;;;;21.80;11.90;;;10.90;99.90;;;;;;5024849;28;20453;-75
2021/05/27 09:30:54;;;;;;;20.43;12.50;;;10.90;99.90;;;;;;4981941;28;20482;-76
2021/05/27 09:33:44;;;;;;;18.13;12.40;;;10.90;99.90;;;;;;4994647;28;20976;-76
2021/05/27 09:36:13;;;;;;;20.50;12.60;;;10.90;99.90;;;;;;4994030;28;20435;-75
2021/05/27 09:38:45;;;;;;;16.57;12.20;;;10.90;99.90;;;;;;4962208;28;20437;-76
2021/05/27 09:41:20;;;;;;;21.70;12.50;;;11.00;99.90;;;;;;4996199;28;20489;-75
2021/05/27 09:44:01;;;;;;;21.47;12.40;;;11.00;99.90;;;;;;4981758;28;20561;-76
2021/05/27 09:46:29;;;;;;;26.13;12.30;;;11.00;99.90;;;;;;4979679;28;20518;-76
2021/05/27 09:49:09;;;;;;;17.17;12.10;;;11.00;99.90;;;;;;4996711;28;20534;-76
2021/05/27 09:51:36;;;;;;;17.87;10.90;;;11.20;99.90;;;;;;5012175;28;20940;-76
2021/05/27 09:54:03;;;;;;;17.80;11.77;;;11.20;99.90;;;;;;4993276;28;20479;-77
2021/05/27 09:56:41;;;;;;;19.20;11.33;;;11.30;99.90;;;;;;5011884;28;20913;-77
2021/05/27 09:59:09;;;;;;;19.23;13.47;;;11.40;99.90;;;;;;5012572;28;20527;-76
2021/05/27 10:02:14;;;;;;;16.60;12.27;;;11.40;99.90;;;;;;4994124;28;20510;-76
2021/05/27 10:05:04;;;;;;;19.77;11.40;;;11.40;99.90;;;;;;5007304;28;20432;-76
2021/05/27 10:07:36;;;;;;;21.07;13.87;;;11.50;99.90;;;;;;5019866;28;20427;-76
2021/05/27 10:10:04;;;;;;;17.67;12.27;;;11.50;99.90;;;;;;5007637;28;20458;-76
2021/05/27 10:12:45;;;;;;;16.07;11.60;;;11.60;99.90;;;;;;4985802;28;20936;-76
2021/05/27 10:15:19;;;;;;;17.63;12.70;;;11.60;99.90;;;;;;5021355;28;20534;-76
2021/05/27 10:17:47;;;;;;;21.30;13.30;;;11.60;99.90;;;;;;5008148;28;20503;-76
2021/05/27 10:20:16;;;;;;;15.43;11.67;;;11.60;99.90;;;;;;5010081;28;20861;-76
2021/05/27 10:22:45;;;;;;;19.13;12.73;;;11.70;99.90;;;;;;5005919;28;20427;-76
2021/05/27 10:25:14;;;;;;;17.27;12.13;;;11.70;99.90;;;;;;4999471;28;20474;-77
2021/05/27 10:27:44;;;;;;;23.83;13.30;;;11.70;99.90;;;;;;4996223;28;20424;-76
2021/05/27 10:30:13;;;;;;;17.23;12.53;;;11.70;99.90;;;;;;5014120;28;20452;-76
2021/05/27 10:32:49;;;;;;;16.67;10.90;;;11.70;99.90;;;;;;4980835;28;20431;-76
2021/05/27 10:35:16;;;;;;;15.77;11.97;;;11.60;99.90;;;;;;5014806;28;20459;-76
2021/05/27 10:37:46;;;;;;;12.50;9.50;;;11.60;99.90;;;;;;4993362;28;20846;-76
2021/05/27 10:40:12;;;;;;;10.63;8.30;;;11.70;99.90;;;;;;4994130;28;20449;-76
2021/05/27 10:42:56;;;;;;;15.00;8.60;;;11.60;99.90;;;;;;4978365;28;20835;-76
2021/05/27 10:45:24;;;;;;;16.00;9.60;;;11.50;99.90;;;;;;4994361;28;20428;-76
2021/05/27 10:48:11;;;;;;;15.47;10.40;;;11.50;99.90;;;;;;4995373;28;20806;-76
2021/05/27 10:50:55;;;;;;;14.87;10.33;;;11.50;99.90;;;;;;4980326;28;20451;-76
2021/05/27 10:53:38;;;;;;;12.83;9.43;;;11.50;99.90;;;;;;4997294;28;20472;-76
2021/05/27 10:56:11;;;;;;;11.40;8.37;;;11.40;99.90;;;;;;5014862;28;20427;-76
2021/05/27 10:58:52;;;;;;;14.63;8.80;;;11.30;99.90;;;;;;4997503;28;20523;-75
2021/05/27 11:01:43;;;;;;;11.57;8.70;;;11.30;99.90;;;;;;4997112;28;20483;-76
2021/05/27 11:04:28;;;;;;;11.80;9.17;;;11.30;99.90;;;;;;4997382;28;20423;-76
2021/05/27 11:07:22;;;;;;;13.37;9.70;;;11.40;99.90;;;;;;5028167;28;20968;-76
2021/05/27 11:09:50;;;;;;;16.30;10.30;;;11.50;99.90;;;;;;5005517;28;20497;-76
2021/05/27 11:12:30;;;;;;;14.53;10.73;;;11.50;99.90;;;;;;5014096;28;20443;-75
2021/05/27 11:15:01;;;;;;;17.80;11.33;;;11.50;99.90;;;;;;5000382;28;20471;-77
2021/05/27 11:17:28;;;;;;;17.60;11.20;;;11.50;99.90;;;;;;5024627;28;20507;-77
2021/05/27 11:20:09;;;;;;;18.10;11.20;;;11.60;99.90;;;;;;5008185;28;20462;-76
2021/05/27 11:22:36;;;;;;;16.77;11.20;;;11.60;99.90;;;;;;4978472;28;20470;-77
2021/05/27 11:27:37;;;;;;;13.50;10.63;;;11.80;99.90;;;;;;4980063;28;20559;-76
2021/05/27 11:30:26;;;;;;;17.43;10.90;;;11.80;99.90;;;;;;4979811;28;20732;-77
2021/05/27 11:33:15;;;;;;;21.47;12.30;;;11.80;99.90;;;;;;4979930;28;20505;-76
2021/05/27 11:35:44;;;;;;;14.10;10.60;;;11.80;99.90;;;;;;4997814;28;20423;-76
2021/05/27 11:38:32;;;;;;;13.40;9.93;;;11.70;99.90;;;;;;5023512;28;20415;-77
2021/05/27 11:41:12;;;;;;;17.63;12.20;;;11.70;99.90;;;;;;5032373;28;20443;-77
2021/05/27 11:43:50;;;;;;;15.97;11.30;;;11.70;99.90;;;;;;5001776;28;20507;-77
2021/05/27 11:46:19;;;;;;;16.60;11.20;;;11.70;99.90;;;;;;4996434;28;20511;-76
2021/05/27 11:51:27;;;;;;;19.93;12.07;;;11.70;99.90;;;;;;5007380;28;20452;-77
2021/05/27 11:53:59;;;;;;;20.50;12.83;;;11.70;99.90;;;;;;5013209;28;20537;-76
2021/05/27 11:56:49;;;;;;;16.93;12.37;;;11.70;99.90;;;;;;4998719;28;20427;-76
2021/05/27 11:59:17;;;;;;;14.17;11.30;;;11.70;99.90;;;;;;4979677;28;20921;-76
2021/05/27 12:01:45;;;;;;;18.27;13.60;;;11.60;99.90;;;;;;5013096;28;20455;-76
2021/05/27 12:04:19;;;;;;;21.33;13.83;;;11.60;99.90;;;;;;5013966;28;20461;-76
2021/05/27 12:07:00;;;;;;;16.97;12.93;;;11.60;99.90;;;;;;5032016;28;20459;-76
2021/05/27 12:09:32;;;;;;;23.43;14.10;;;11.70;99.90;;;;;;4987551;28;20436;-76
2021/05/27 12:12:13;;;;;;;20.10;12.80;;;11.70;99.90;;;;;;4996638;28;20529;-76
2021/05/27 12:14:53;;;;;;;17.97;12.93;;;11.70;99.90;;;;;;5011970;28;20484;-76
2021/05/27 12:17:25;;;;;;;20.50;12.77;;;11.80;99.90;;;;;;5013821;28;20459;-76
2021/05/27 12:19:57;;;;;;;19.60;12.60;;;11.80;99.90;;;;;;4999931;28;20474;-76
2021/05/27 12:22:23;;;;;;;17.83;13.97;;;11.90;99.90;;;;;;4962937;28;20569;-77
2021/05/27 12:25:08;;;;;;;20.20;14.57;;;12.00;99.90;;;;;;4981451;28;20507;-76
2021/05/27 12:27:39;;;;;;;23.57;13.57;;;12.10;99.90;;;;;;5014698;28;20431;-76
2021/05/27 12:30:06;;;;;;;19.77;14.10;;;12.30;99.90;;;;;;4982142;28;20463;-76
2021/05/27 12:32:34;;;;;;;19.90;13.60;;;12.50;99.90;;;;;;4995285;28;20470;-76
2021/05/27 12:35:00;;;;;;;20.30;14.10;;;12.70;99.90;;;;;;4994268;28;20463;-76
2021/05/27 12:37:46;;;;;;;16.30;12.50;;;12.90;99.90;;;;;;4979112;28;20499;-76
2021/05/27 12:40:13;;;;;;;17.07;12.70;;;13.00;99.90;;;;;;4994287;28;20448;-76
2021/05/27 12:42:39;;;;;;;26.13;12.93;;;13.00;99.90;;;;;;5012299;28;20524;-76
2021/05/27 12:45:25;;;;;;;16.50;12.00;;;13.10;99.90;;;;;;5017664;28;20436;-76
2021/05/27 12:48:08;;;;;;;25.43;13.70;;;13.00;99.90;;;;;;5011009;28;20520;-76
2021/05/27 12:50:39;;;;;;;16.53;11.00;;;13.10;99.90;;;;;;4952588;28;20461;-75
2021/05/27 12:53:19;;;;;;;16.50;10.60;;;12.90;99.90;;;;;;4993553;28;20475;-76
2021/05/27 12:55:45;;;;;;;15.30;10.37;;;12.70;99.90;;;;;;4995398;28;21136;-76
2021/05/27 12:58:24;;;;;;;14.13;9.70;;;12.70;99.90;;;;;;5030969;28;20547;-76
2021/05/27 13:00:50;;;;;;;12.10;8.30;;;12.60;99.90;;;;;;4994735;28;20815;-76
2021/05/27 13:03:18;;;;;;;13.30;9.23;;;12.50;99.90;;;;;;4994706;28;20441;-76
2021/05/27 13:05:45;;;;;;;15.83;9.10;;;12.50;99.90;;;;;;5003502;28;20429;-76